createdAt,value
2022-10-31T00:00:26.453Z,6.25
2022-10-31T00:02:52.774Z,4.43
2022-10-31T00:05:19.123Z,2.17
2022-10-31T00:07:45.459Z,2.27
2022-10-31T00:10:11.810Z,2.80
2022-10-31T00:12:38.127Z,3.50
2022-10-31T00:15:04.766Z,3.40
2022-10-31T00:17:31.074Z,4.22
2022-10-31T00:19:57.776Z,3.57
2022-10-31T00:22:24.101Z,3.50
2022-10-31T00:24:50.404Z,3.85
2022-10-31T00:27:16.898Z,4.25
2022-10-31T00:29:43.226Z,4.93
2022-10-31T00:32:09.539Z,3.00
2022-10-31T00:34:35.867Z,3.08
2022-10-31T00:37:02.190Z,4.00
2022-10-31T00:39:28.502Z,3.15
2022-10-31T00:41:54.824Z,3.33
2022-10-31T00:44:21.139Z,3.07
2022-10-31T00:46:47.449Z,4.70
2022-10-31T00:49:13.758Z,3.85
2022-10-31T00:51:40.147Z,2.25
2022-10-31T00:54:06.566Z,3.17
2022-10-31T00:56:32.872Z,3.97
2022-10-31T00:58:59.436Z,4.07
2022-10-31T01:01:25.842Z,4.50
2022-10-31T01:03:52.202Z,4.43
2022-10-31T01:06:18.590Z,4.88
2022-10-31T01:08:48.129Z,4.97
2022-10-31T01:11:17.721Z,5.18
2022-10-31T01:13:45.167Z,5.38
2022-10-31T01:16:14.862Z,5.40
2022-10-31T01:18:41.894Z,5.25
2022-10-31T01:21:37.441Z,4.80
2022-10-31T01:24:04.084Z,5.40
2022-10-31T01:26:32.432Z,5.57
2022-10-31T01:29:01.290Z,5.63
2022-10-31T01:31:30.471Z,5.70
2022-10-31T01:33:57.445Z,5.73
2022-10-31T01:36:30.177Z,5.75
2022-10-31T01:39:02.155Z,5.38
2022-10-31T01:41:31.674Z,5.68
2022-10-31T01:44:01.265Z,4.90
2022-10-31T01:46:37.503Z,5.00
2022-10-31T01:49:10.422Z,4.60
2022-10-31T01:51:42.502Z,4.88
2022-10-31T01:54:13.324Z,4.60
2022-10-31T01:56:44.544Z,4.70
2022-10-31T01:59:14.972Z,4.13
2022-10-31T02:01:41.601Z,4.05
2022-10-31T02:04:08.786Z,4.13
2022-10-31T02:06:48.143Z,4.38
2022-10-31T02:09:15.206Z,3.70
2022-10-31T02:11:42.135Z,3.73
2022-10-31T02:14:08.477Z,2.78
2022-10-31T02:16:34.794Z,3.17
2022-10-31T02:19:01.118Z,7.10
2022-10-31T02:21:38.106Z,10.25
2022-10-31T02:24:32.252Z,2.03
2022-10-31T02:27:07.882Z,2.00
2022-10-31T02:30:15.609Z,2.05
2022-10-31T02:33:03.140Z,2.50
2022-10-31T02:35:48.199Z,2.63
2022-10-31T02:38:44.297Z,2.53
2022-10-31T02:41:10.531Z,1.95
2022-10-31T02:43:53.222Z,2.30
2022-10-31T02:46:28.814Z,1.92
2022-10-31T02:49:01.329Z,1.42
2022-10-31T02:51:28.171Z,0.97
2022-10-31T02:53:54.471Z,1.70
2022-10-31T02:56:20.894Z,1.10
2022-10-31T02:58:55.300Z,1.50
2022-10-31T03:01:28.487Z,0.80
2022-10-31T03:04:07.099Z,0.67
2022-10-31T03:06:40.362Z,1.80
2022-10-31T03:09:06.606Z,1.33
2022-10-31T03:12:04.660Z,1.30
2022-10-31T03:14:41.938Z,1.20
2022-10-31T03:17:16.234Z,1.77
2022-10-31T03:19:46.582Z,2.10
2022-10-31T03:22:22.637Z,0.75
2022-10-31T03:24:52.361Z,0.70
2022-10-31T03:27:24.180Z,1.15
2022-10-31T03:29:55.524Z,1.00
2022-10-31T03:32:42.062Z,1.15
2022-10-31T03:35:10.919Z,0.90
2022-10-31T03:37:41.413Z,0.90
2022-10-31T03:40:10.119Z,1.33
2022-10-31T03:42:41.442Z,0.90
2022-10-31T03:45:19.944Z,0.60
2022-10-31T03:47:46.416Z,0.50
2022-10-31T03:50:15.298Z,1.00
2022-10-31T03:52:56.988Z,1.27
2022-10-31T03:55:40.136Z,0.80
2022-10-31T03:58:12.048Z,0.90
2022-10-31T04:00:43.013Z,0.90
2022-10-31T04:03:23.889Z,1.40
2022-10-31T04:05:54.206Z,0.70
2022-10-31T04:08:24.571Z,1.10
2022-10-31T04:10:53.500Z,0.93
2022-10-31T04:13:30.401Z,0.95
2022-10-31T04:15:57.507Z,1.40
2022-10-31T04:18:24.990Z,1.15
2022-10-31T04:21:01.558Z,2.47
2022-10-31T04:23:29.181Z,1.25
2022-10-31T04:25:55.748Z,1.10
2022-10-31T04:28:22.478Z,2.08
2022-10-31T04:30:48.857Z,1.88
2022-10-31T04:33:15.180Z,0.60
2022-10-31T04:35:41.523Z,0.75
2022-10-31T04:38:07.835Z,0.93
2022-10-31T04:40:34.130Z,0.80
2022-10-31T04:43:00.755Z,1.00
2022-10-31T04:45:27.326Z,1.20
2022-10-31T04:47:53.619Z,1.40
2022-10-31T04:50:19.954Z,1.33
2022-10-31T04:52:47.273Z,1.35
2022-10-31T04:55:14.722Z,1.10
2022-10-31T04:57:45.082Z,1.10
2022-10-31T05:00:12.796Z,1.30
2022-10-31T05:02:46.497Z,1.30
2022-10-31T05:05:15.021Z,0.95
2022-10-31T05:07:43.337Z,0.82
2022-10-31T05:10:14.842Z,0.83
2022-10-31T05:12:52.743Z,1.00
2022-10-31T05:15:21.263Z,1.60
2022-10-31T05:17:47.877Z,0.90
2022-10-31T05:20:16.545Z,1.33
2022-10-31T05:22:54.169Z,1.47
2022-10-31T05:25:23.356Z,0.77
2022-10-31T05:27:51.767Z,0.60
2022-10-31T05:30:21.199Z,1.45
2022-10-31T05:32:49.044Z,2.20
2022-10-31T05:35:35.692Z,2.07
2022-10-31T05:38:02.194Z,1.85
2022-10-31T05:40:29.194Z,1.90
2022-10-31T05:42:57.672Z,2.38
2022-10-31T05:45:24.805Z,2.28
2022-10-31T05:48:02.572Z,1.33
2022-10-31T05:50:31.849Z,1.90
2022-10-31T05:53:03.946Z,2.78
2022-10-31T05:55:31.092Z,2.88
2022-10-31T05:57:57.753Z,1.70
2022-10-31T06:00:25.264Z,2.20
2022-10-31T06:02:59.715Z,3.63
2022-10-31T06:05:26.371Z,2.20
2022-10-31T06:07:52.664Z,3.10
2022-10-31T06:10:20.290Z,2.80
2022-10-31T06:12:46.613Z,2.60
2022-10-31T06:15:12.919Z,2.50
2022-10-31T06:17:39.247Z,2.85
2022-10-31T06:20:06.845Z,2.50
2022-10-31T06:22:33.486Z,3.03
2022-10-31T06:25:00.033Z,3.30
2022-10-31T06:27:26.563Z,3.03
2022-10-31T06:29:52.958Z,5.05
2022-10-31T06:32:19.811Z,2.78
2022-10-31T06:34:49.064Z,3.58
2022-10-31T06:37:15.969Z,3.10
2022-10-31T06:39:42.291Z,2.38
2022-10-31T06:42:08.620Z,4.45
2022-10-31T06:44:34.922Z,4.57
2022-10-31T06:47:01.261Z,4.63
2022-10-31T06:49:27.614Z,3.27
2022-10-31T06:51:54.002Z,3.33
2022-10-31T06:54:20.349Z,4.43
2022-10-31T06:56:48.316Z,3.88
2022-10-31T06:59:15.620Z,4.50
2022-10-31T07:01:42.445Z,3.90
2022-10-31T07:04:12.293Z,4.25
2022-10-31T07:06:38.832Z,4.57
2022-10-31T07:09:05.660Z,4.40
2022-10-31T07:11:32.242Z,4.75
2022-10-31T07:13:58.562Z,5.10
2022-10-31T07:16:25.087Z,5.13
2022-10-31T07:18:51.558Z,6.90
2022-10-31T07:21:17.913Z,4.50
2022-10-31T07:23:44.218Z,5.00
2022-10-31T07:26:11.746Z,5.67
2022-10-31T07:28:38.113Z,4.95
2022-10-31T07:31:05.469Z,4.68
2022-10-31T07:33:32.970Z,4.25
2022-10-31T07:36:01.457Z,4.93
2022-10-31T07:38:29.151Z,4.30
2022-10-31T07:40:56.575Z,4.82
2022-10-31T07:43:24.178Z,5.40
2022-10-31T07:45:53.508Z,5.63
2022-10-31T07:48:21.711Z,6.90
2022-10-31T07:50:49.079Z,6.07
2022-10-31T07:53:16.759Z,4.63
2022-10-31T07:55:44.996Z,5.38
2022-10-31T07:58:15.563Z,4.43
2022-10-31T08:00:45.301Z,4.88
2022-10-31T08:03:15.051Z,5.20
2022-10-31T08:05:42.928Z,4.13
2022-10-31T08:08:11.079Z,4.80
2022-10-31T08:10:38.941Z,6.32
2022-10-31T08:13:14.772Z,5.18
2022-10-31T08:15:43.315Z,5.27
2022-10-31T08:18:15.158Z,6.13
2022-10-31T08:20:43.385Z,6.15
2022-10-31T08:23:12.151Z,5.45
2022-10-31T08:25:39.855Z,5.53
2022-10-31T08:28:08.207Z,5.80
2022-10-31T08:30:38.528Z,7.40
2022-10-31T08:33:12.402Z,7.80
2022-10-31T08:35:39.955Z,7.60
2022-10-31T08:38:08.919Z,6.80
2022-10-31T08:40:39.181Z,7.27
2022-10-31T08:43:10.389Z,8.07
2022-10-31T08:45:37.588Z,7.32
2022-10-31T08:48:07.610Z,7.38
2022-10-31T08:50:36.728Z,7.70
2022-10-31T08:53:12.979Z,7.40
2022-10-31T08:55:41.127Z,7.15
2022-10-31T08:58:13.908Z,8.05
2022-10-31T09:00:41.434Z,7.95
2022-10-31T09:03:13.747Z,8.05
2022-10-31T09:05:41.404Z,7.70
2022-10-31T09:08:14.775Z,11.23
2022-10-31T09:10:43.926Z,9.15
2022-10-31T09:13:14.048Z,8.82
2022-10-31T09:15:42.695Z,8.15
2022-10-31T09:18:10.129Z,9.30
2022-10-31T09:20:38.293Z,9.20
2022-10-31T09:23:07.622Z,9.57
2022-10-31T09:25:36.279Z,10.20
2022-10-31T09:28:04.885Z,10.52
2022-10-31T09:30:33.916Z,11.47
2022-10-31T09:33:03.039Z,11.55
2022-10-31T09:35:30.337Z,10.30
2022-10-31T09:37:59.126Z,11.55
2022-10-31T09:40:32.770Z,10.48
2022-10-31T09:43:32.763Z,11.93
2022-10-31T09:46:30.890Z,13.27
2022-10-31T09:49:11.300Z,13.00
2022-10-31T09:51:52.961Z,13.25
2022-10-31T09:54:26.922Z,13.18
2022-10-31T09:56:53.711Z,13.47
2022-10-31T09:59:34.299Z,13.88
2022-10-31T10:02:47.044Z,14.32
2022-10-31T10:05:20.690Z,12.48
2022-10-31T10:08:12.955Z,14.13
2022-10-31T10:10:55.552Z,13.03
2022-10-31T10:13:52.300Z,12.63
2022-10-31T10:16:21.626Z,11.77
2022-10-31T10:18:59.857Z,12.93
2022-10-31T10:21:40.531Z,11.38
2022-10-31T10:24:15.916Z,10.70
2022-10-31T10:26:51.450Z,10.95
2022-10-31T10:29:31.960Z,11.10
2022-10-31T10:32:02.348Z,11.68
2022-10-31T10:34:38.143Z,11.65
2022-10-31T10:37:12.838Z,10.13
2022-10-31T10:39:44.287Z,10.40
2022-10-31T10:42:35.458Z,9.90
2022-10-31T10:45:34.123Z,10.40
2022-10-31T10:48:10.375Z,9.45
2022-10-31T10:50:45.404Z,8.90
2022-10-31T10:53:32.594Z,8.80
2022-10-31T10:56:17.692Z,10.40
2022-10-31T10:58:44.264Z,9.40
2022-10-31T11:03:43.065Z,10.17
2022-10-31T11:06:23.060Z,10.85
2022-10-31T11:08:50.667Z,11.52
2022-10-31T11:11:28.855Z,10.93
2022-10-31T11:14:13.242Z,9.07
2022-10-31T11:16:43.536Z,8.37
2022-10-31T11:19:12.589Z,10.50
2022-10-31T11:21:39.111Z,9.80
2022-10-31T11:24:11.543Z,9.82
2022-10-31T11:26:40.241Z,9.00
2022-10-31T11:29:14.785Z,9.80
2022-10-31T11:31:41.822Z,10.43
2022-10-31T11:34:16.979Z,10.05
2022-10-31T11:36:45.245Z,10.45
2022-10-31T11:39:21.475Z,11.13
2022-10-31T11:41:49.186Z,12.13
2022-10-31T11:44:20.589Z,11.98
2022-10-31T11:46:52.693Z,12.15
2022-10-31T11:49:31.850Z,13.80
2022-10-31T11:52:02.701Z,12.43
2022-10-31T11:54:31.935Z,12.67
2022-10-31T11:56:58.288Z,12.85
2022-10-31T11:59:32.717Z,14.32
2022-10-31T12:02:01.296Z,12.85
2022-10-31T12:04:51.766Z,13.82
2022-10-31T12:07:18.086Z,13.53
2022-10-31T12:09:44.437Z,12.82
2022-10-31T12:12:35.417Z,12.52
2022-10-31T12:15:10.885Z,13.93
2022-10-31T12:18:01.512Z,13.00
2022-10-31T12:20:49.732Z,14.17
2022-10-31T12:23:34.965Z,14.57
2022-10-31T12:26:11.617Z,14.55
2022-10-31T12:28:49.885Z,13.65
2022-10-31T12:31:30.131Z,13.75
2022-10-31T12:34:02.455Z,14.60
2022-10-31T12:36:43.875Z,14.10
2022-10-31T12:39:19.629Z,13.07
2022-10-31T12:42:19.353Z,16.23
2022-10-31T12:45:21.199Z,16.02
2022-10-31T12:48:05.591Z,14.80
2022-10-31T12:51:21.347Z,14.27
2022-10-31T12:54:34.790Z,14.82
2022-10-31T12:57:19.127Z,15.88
2022-10-31T12:59:53.925Z,14.13
2022-10-31T13:02:43.571Z,15.87
2022-10-31T13:05:34.019Z,15.02
2022-10-31T13:08:15.324Z,14.23
2022-10-31T13:13:45.514Z,14.63
2022-10-31T13:16:21.150Z,14.10
2022-10-31T13:18:52.906Z,15.05
2022-10-31T13:21:27.161Z,14.38
2022-10-31T13:23:55.678Z,14.23
2022-10-31T13:26:33.973Z,16.13
2022-10-31T13:29:10.047Z,15.27
2022-10-31T13:31:41.081Z,16.33
2022-10-31T13:34:19.201Z,17.85
2022-10-31T13:37:16.659Z,16.27
2022-10-31T13:39:49.412Z,15.32
2022-10-31T13:42:24.548Z,16.50
2022-10-31T13:44:50.897Z,17.23
2022-10-31T13:47:26.887Z,15.55
2022-10-31T13:50:19.521Z,15.30
2022-10-31T13:52:46.348Z,16.63
2022-10-31T13:55:40.757Z,16.27
2022-10-31T13:58:39.700Z,14.88
2022-10-31T14:01:11.877Z,16.67
2022-10-31T14:04:06.125Z,14.93
2022-10-31T14:06:38.504Z,13.90
2022-10-31T14:09:05.626Z,16.17
2022-10-31T14:11:36.106Z,14.68
2022-10-31T14:14:03.990Z,14.20
2022-10-31T14:16:32.941Z,16.40
2022-10-31T14:19:06.659Z,14.98
2022-10-31T14:21:41.426Z,13.90
2022-10-31T14:24:26.123Z,14.65
2022-10-31T14:26:58.102Z,14.07
2022-10-31T14:29:32.573Z,15.32
2022-10-31T14:32:20.381Z,15.25
2022-10-31T14:34:58.550Z,15.30
2022-10-31T14:37:50.409Z,14.07
2022-10-31T14:40:26.961Z,13.63
2022-10-31T14:43:15.230Z,15.10
2022-10-31T14:45:49.167Z,15.40
2022-10-31T14:48:37.762Z,14.13
2022-10-31T14:51:13.177Z,14.95
2022-10-31T14:53:56.064Z,13.65
2022-10-31T14:56:27.224Z,14.30
2022-10-31T14:58:56.295Z,14.93
2022-10-31T15:01:54.520Z,13.73
2022-10-31T15:04:27.293Z,14.98
2022-10-31T15:07:01.359Z,14.93
2022-10-31T15:09:30.908Z,14.20
2022-10-31T15:12:00.188Z,14.48
2022-10-31T15:14:29.446Z,14.77
2022-10-31T15:17:01.917Z,13.35
2022-10-31T15:19:31.173Z,14.43
2022-10-31T15:21:58.692Z,15.52
2022-10-31T15:24:36.013Z,14.63
2022-10-31T15:27:05.139Z,13.97
2022-10-31T15:29:32.386Z,13.85
2022-10-31T15:32:01.728Z,15.40
2022-10-31T15:34:39.029Z,14.43
2022-10-31T15:37:10.182Z,13.77
2022-10-31T15:39:36.490Z,15.47
2022-10-31T15:42:03.023Z,14.15
2022-10-31T15:44:36.194Z,14.73
2022-10-31T15:47:07.397Z,14.35
2022-10-31T15:49:51.040Z,14.00
2022-10-31T15:52:35.702Z,14.13
2022-10-31T15:55:06.600Z,14.25
2022-10-31T15:57:33.869Z,14.32
2022-10-31T16:00:00.216Z,13.82
2022-10-31T16:02:28.322Z,14.32
2022-10-31T16:05:01.959Z,14.07
2022-10-31T16:07:30.253Z,13.10
2022-10-31T16:09:59.697Z,13.40
2022-10-31T16:12:33.282Z,14.05
2022-10-31T16:14:59.620Z,13.68
2022-10-31T16:17:28.256Z,14.60
2022-10-31T16:19:59.678Z,13.30
2022-10-31T16:22:29.776Z,13.85
2022-10-31T16:25:05.164Z,13.65
2022-10-31T16:27:34.471Z,14.15
2022-10-31T16:30:04.513Z,13.53
2022-10-31T16:32:54.444Z,13.98
2022-10-31T16:35:32.441Z,13.80
2022-10-31T16:37:58.850Z,12.77
2022-10-31T16:40:25.792Z,13.18
2022-10-31T16:42:52.944Z,12.67
2022-10-31T16:45:25.861Z,13.80
2022-10-31T16:47:53.017Z,13.40
2022-10-31T16:50:25.905Z,13.23
2022-10-31T16:53:12.449Z,13.27
2022-10-31T16:55:47.675Z,12.93
2022-10-31T16:58:35.314Z,12.40
2022-10-31T17:01:06.657Z,13.15
2022-10-31T17:03:33.711Z,12.55
2022-10-31T17:06:00.062Z,12.57
2022-10-31T17:08:26.404Z,12.13
2022-10-31T17:10:55.897Z,13.02
2022-10-31T17:13:25.947Z,13.90
2022-10-31T17:15:56.458Z,13.13
2022-10-31T17:18:27.398Z,14.73
2022-10-31T17:21:03.225Z,12.73
2022-10-31T17:23:30.283Z,14.30
2022-10-31T17:25:57.216Z,13.82
2022-10-31T17:28:23.588Z,14.07
2022-10-31T17:30:50.115Z,13.68
2022-10-31T17:38:58.049Z,12.52
2022-10-31T17:49:42.841Z,12.50
2022-10-31T17:52:15.201Z,13.93
2022-10-31T17:54:45.822Z,13.55
2022-10-31T17:57:13.691Z,15.15
2022-10-31T17:59:40.101Z,13.73
2022-10-31T18:02:08.787Z,14.43
2022-10-31T18:04:35.693Z,13.77
2022-10-31T18:07:02.483Z,15.13
2022-10-31T18:09:28.802Z,14.32
2022-10-31T18:11:55.222Z,13.53
2022-10-31T18:14:21.544Z,14.75
2022-10-31T18:16:47.909Z,13.40
2022-10-31T18:19:16.114Z,14.23
2022-10-31T18:21:44.381Z,15.02
2022-10-31T18:24:10.721Z,13.43
2022-10-31T18:26:37.189Z,13.23
2022-10-31T18:29:04.001Z,13.35
2022-10-31T18:31:30.350Z,13.52
2022-10-31T18:33:57.458Z,12.35
2022-10-31T18:36:24.385Z,13.60
2022-10-31T18:38:50.740Z,13.23
2022-10-31T18:41:17.166Z,13.20
2022-10-31T18:43:43.482Z,12.95
2022-10-31T18:46:13.304Z,12.95
2022-10-31T18:48:43.989Z,12.73
2022-10-31T18:51:14.106Z,13.48
2022-10-31T18:53:40.660Z,13.82
2022-10-31T18:56:08.693Z,12.82
2022-10-31T18:58:35.470Z,14.13
2022-10-31T19:01:09.522Z,13.57
2022-10-31T19:03:36.906Z,14.20
2022-10-31T19:06:03.799Z,12.27
2022-10-31T19:08:31.066Z,12.40
2022-10-31T19:11:05.206Z,13.48
2022-10-31T19:13:32.935Z,11.63
2022-10-31T19:16:10.781Z,12.23
2022-10-31T19:18:38.085Z,10.93
2022-10-31T19:21:08.382Z,12.43
2022-10-31T19:23:35.289Z,11.32
2022-10-31T19:26:02.771Z,10.60
2022-10-31T19:28:31.143Z,12.38
2022-10-31T19:30:58.073Z,11.45
2022-10-31T19:33:29.468Z,11.18
2022-10-31T19:36:09.513Z,10.95
2022-10-31T19:38:37.382Z,11.17
2022-10-31T19:41:07.343Z,10.75
2022-10-31T19:43:34.201Z,11.20
2022-10-31T19:46:02.566Z,10.35
2022-10-31T19:48:29.138Z,9.25
2022-10-31T19:51:04.629Z,10.53
2022-10-31T19:53:31.768Z,9.98
2022-10-31T19:55:58.643Z,9.35
2022-10-31T19:58:25.566Z,9.32
2022-10-31T20:00:52.067Z,9.10
2022-10-31T20:03:21.591Z,9.43
2022-10-31T20:05:50.150Z,8.57
2022-10-31T20:08:19.336Z,8.95
2022-10-31T20:11:03.675Z,9.50
2022-10-31T20:13:32.129Z,8.32
2022-10-31T20:16:01.034Z,8.13
2022-10-31T20:18:27.794Z,8.32
2022-10-31T20:20:54.318Z,7.35
2022-10-31T20:23:20.655Z,7.70
2022-10-31T20:25:48.840Z,6.70
2022-10-31T20:28:15.584Z,6.83
2022-10-31T20:30:42.726Z,6.90
2022-10-31T20:33:09.045Z,7.07
2022-10-31T20:35:40.106Z,6.47
2022-10-31T20:38:08.010Z,7.03
2022-10-31T20:40:35.273Z,6.70
2022-10-31T20:43:02.899Z,6.18
2022-10-31T20:45:30.454Z,6.93
2022-10-31T20:47:57.863Z,6.55
2022-10-31T20:50:25.602Z,6.68
2022-10-31T20:52:52.344Z,6.60
2022-10-31T20:55:18.786Z,6.07
2022-10-31T20:57:45.143Z,6.03
2022-10-31T21:00:15.187Z,6.88
2022-10-31T21:02:42.934Z,6.65
2022-10-31T21:05:12.833Z,5.60
2022-10-31T21:07:39.713Z,5.55
2022-10-31T21:10:15.982Z,6.18
2022-10-31T21:12:44.177Z,5.88
2022-10-31T21:15:12.325Z,5.13
2022-10-31T21:17:38.613Z,4.97
2022-10-31T21:20:06.853Z,4.43
2022-10-31T21:22:33.853Z,5.22
2022-10-31T21:25:00.417Z,4.10
2022-10-31T21:27:26.898Z,4.20
2022-10-31T21:29:53.369Z,4.27
2022-10-31T21:32:19.722Z,4.03
2022-10-31T21:34:48.089Z,4.47
2022-10-31T21:37:14.386Z,4.22
2022-10-31T21:39:40.684Z,4.55
2022-10-31T21:42:07.000Z,4.77
2022-10-31T21:44:33.597Z,4.43
2022-10-31T21:46:59.915Z,4.13
2022-10-31T21:49:26.216Z,4.18
2022-10-31T21:51:52.514Z,4.47
2022-10-31T21:54:27.910Z,3.93
2022-10-31T21:56:55.612Z,4.35
2022-10-31T21:59:22.108Z,3.97
2022-10-31T22:01:48.992Z,4.60
2022-10-31T22:04:15.696Z,5.43
2022-10-31T22:06:42.106Z,4.23
2022-10-31T22:09:11.606Z,5.20
2022-10-31T22:11:39.804Z,4.30
2022-10-31T22:14:06.162Z,3.83
2022-10-31T22:16:35.984Z,4.30
2022-10-31T22:19:05.628Z,5.23
2022-10-31T22:21:44.150Z,3.50
2022-10-31T22:24:11.168Z,4.88
2022-10-31T22:26:38.533Z,3.92
2022-10-31T22:29:07.523Z,4.03
2022-10-31T22:31:37.106Z,4.10
2022-10-31T22:34:03.396Z,3.65
2022-10-31T22:36:32.026Z,4.07
2022-10-31T22:38:59.027Z,4.07
2022-10-31T22:41:28.501Z,4.03
2022-10-31T22:43:55.994Z,4.17
2022-10-31T22:46:24.958Z,4.43
2022-10-31T22:48:55.771Z,4.28
2022-10-31T22:51:24.800Z,4.32
2022-10-31T22:53:51.658Z,4.40
2022-10-31T22:56:20.531Z,3.97
2022-10-31T22:58:48.222Z,4.18
2022-10-31T23:01:17.892Z,3.47
2022-10-31T23:03:45.130Z,4.32
2022-10-31T23:06:14.341Z,4.25
2022-10-31T23:08:41.342Z,3.73
2022-10-31T23:11:19.882Z,3.90
2022-10-31T23:14:06.950Z,4.07
2022-10-31T23:16:34.261Z,4.00
2022-10-31T23:19:01.470Z,4.00
2022-10-31T23:21:46.439Z,4.03
2022-10-31T23:24:12.779Z,4.50
2022-10-31T23:26:58.534Z,3.70
2022-10-31T23:29:24.973Z,4.00
2022-10-31T23:31:54.527Z,4.28
2022-10-31T23:34:22.407Z,3.93
2022-10-31T23:36:49.180Z,4.93
2022-10-31T23:39:15.502Z,4.68
2022-10-31T23:41:42.037Z,3.88
2022-10-31T23:44:08.373Z,4.57
2022-10-31T23:46:35.189Z,4.60
2022-10-31T23:49:01.600Z,5.05
2022-10-31T23:51:27.893Z,4.75
2022-10-31T23:53:54.187Z,4.82
2022-10-31T23:56:20.573Z,4.05
2022-10-31T23:58:46.910Z,4.73
